createdAt,value
2019-05-09T00:01:35.270Z,97549.42
2019-05-09T00:04:05.706Z,97553.41
2019-05-09T00:06:34.763Z,97554.37
2019-05-09T00:09:03.963Z,97545.63
2019-05-09T00:11:33.669Z,97539.02
2019-05-09T00:14:04.468Z,97545.80
2019-05-09T00:16:33.662Z,97542.80
2019-05-09T00:19:03.443Z,97540.52
2019-05-09T00:21:38.000Z,97537.02
2019-05-09T00:24:08.121Z,97546.41
2019-05-09T00:26:37.277Z,97540.65
2019-05-09T00:29:11.252Z,97535.23
2019-05-09T00:31:59.356Z,97534.59
2019-05-09T00:34:39.618Z,97540.36
2019-05-09T00:37:08.767Z,97536.76
2019-05-09T00:39:37.866Z,97537.41
2019-05-09T00:42:06.984Z,97528.62
2019-05-09T00:44:38.745Z,97533.75
2019-05-09T00:47:20.160Z,97522.55
2019-05-09T00:49:49.196Z,97517.59
2019-05-09T00:52:18.397Z,97515.47
2019-05-09T00:54:47.472Z,97519.13
2019-05-09T00:57:33.676Z,97520.11
2019-05-09T01:00:05.356Z,97528.20
2019-05-09T01:02:34.448Z,97519.95
2019-05-09T01:05:04.184Z,97523.44
2019-05-09T01:07:33.764Z,97521.77
2019-05-09T01:10:04.210Z,97520.45
2019-05-09T01:12:34.153Z,97519.61
2019-05-09T01:15:03.520Z,97525.58
2019-05-09T01:17:33.530Z,97521.92
2019-05-09T01:20:03.463Z,97518.27
2019-05-09T01:22:33.219Z,97511.66
2019-05-09T01:25:04.201Z,97510.67
2019-05-09T01:27:33.950Z,97509.34
2019-05-09T01:30:04.611Z,97506.88
2019-05-09T01:32:50.577Z,97509.49
2019-05-09T01:35:19.591Z,97501.39
2019-05-09T01:37:49.961Z,97498.91
2019-05-09T01:40:19.046Z,97492.28
2019-05-09T01:42:48.205Z,97495.94
2019-05-09T01:45:17.341Z,97490.97
2019-05-09T01:47:46.413Z,97492.45
2019-05-09T01:50:15.509Z,97493.91
2019-05-09T01:52:44.573Z,97497.39
2019-05-09T01:55:14.309Z,97499.72
2019-05-09T01:57:47.483Z,97495.23
2019-05-09T02:00:14.472Z,97487.77
2019-05-09T02:02:43.553Z,97346.16
2019-05-09T02:05:13.491Z,97479.98
2019-05-09T02:07:43.847Z,97478.46
2019-05-09T02:10:13.921Z,97478.34
2019-05-09T02:12:43.168Z,97489.25
2019-05-09T02:15:23.604Z,97484.64
2019-05-09T02:18:05.135Z,97485.77
2019-05-09T02:20:33.438Z,97483.64
2019-05-09T02:23:03.674Z,97486.44
2019-05-09T02:25:34.012Z,97478.34
2019-05-09T02:28:03.547Z,97475.33
2019-05-09T02:30:35.939Z,97481.34
2019-05-09T02:33:05.128Z,97479.82
2019-05-09T02:35:43.370Z,97484.44
2019-05-09T02:38:09.135Z,97479.58
2019-05-09T02:40:39.355Z,97484.67
2019-05-09T02:43:09.997Z,97485.80
2019-05-09T02:45:51.630Z,97487.13
2019-05-09T02:48:18.404Z,97473.08
2019-05-09T02:50:48.585Z,97470.27
2019-05-09T02:53:18.997Z,97462.45
2019-05-09T02:55:49.519Z,97463.81
2019-05-09T02:58:20.813Z,97461.52
2019-05-09T03:01:03.183Z,97454.70
2019-05-09T03:03:35.255Z,97458.55
2019-05-09T03:06:05.368Z,97451.22
2019-05-09T03:08:34.461Z,97450.44
2019-05-09T03:11:03.584Z,97445.80
2019-05-09T03:13:32.711Z,97455.51
2019-05-09T03:16:10.585Z,97444.27
2019-05-09T03:18:39.681Z,97438.62
2019-05-09T03:21:19.353Z,97443.43
2019-05-09T03:23:48.995Z,97442.79
2019-05-09T03:26:23.707Z,97436.33
2019-05-09T03:29:03.200Z,97434.36
2019-05-09T03:31:32.743Z,97429.75
2019-05-09T03:34:04.545Z,97429.94
2019-05-09T03:36:34.716Z,97430.75
2019-05-09T03:39:08.057Z,97426.30
2019-05-09T03:41:36.679Z,97421.97
2019-05-09T03:44:07.334Z,97419.92
2019-05-09T03:46:59.439Z,97418.59
2019-05-09T03:49:28.557Z,97410.17
2019-05-09T03:51:58.444Z,97414.34
2019-05-09T03:54:28.382Z,97415.19
2019-05-09T03:57:02.894Z,97405.88
2019-05-09T03:59:31.997Z,97399.26
2019-05-09T04:02:01.149Z,97393.80
2019-05-09T04:04:30.216Z,97397.30
2019-05-09T04:06:59.356Z,97400.94
2019-05-09T04:09:28.431Z,97389.71
2019-05-09T04:11:58.366Z,97393.64
2019-05-09T04:14:29.781Z,97402.27
2019-05-09T04:16:58.983Z,97398.81
2019-05-09T04:19:28.099Z,97406.88
2019-05-09T04:21:57.708Z,97395.97
2019-05-09T04:24:28.219Z,97394.64
2019-05-09T04:27:07.660Z,97396.61
2019-05-09T04:29:37.389Z,97387.45
2019-05-09T04:32:07.938Z,97245.02
2019-05-09T04:34:38.384Z,97392.75
2019-05-09T04:37:08.478Z,97384.57
2019-05-09T04:39:40.592Z,97378.73
2019-05-09T04:42:09.085Z,97381.23
2019-05-09T04:44:57.404Z,97380.89
2019-05-09T04:47:27.658Z,97386.75
2019-05-09T04:49:58.246Z,97381.46
2019-05-09T04:52:27.952Z,97378.80
2019-05-09T04:54:58.130Z,97386.69
2019-05-09T04:57:27.848Z,97385.49
2019-05-09T04:59:57.588Z,97389.30
2019-05-09T05:02:38.021Z,97386.91
2019-05-09T05:05:08.660Z,97386.41
2019-05-09T05:07:37.834Z,97383.12
2019-05-09T05:10:08.943Z,97391.31
2019-05-09T05:12:38.168Z,97388.98
2019-05-09T05:15:08.046Z,97389.33
2019-05-09T05:17:37.799Z,97390.45
2019-05-09T05:20:09.504Z,97386.56
2019-05-09T05:22:53.470Z,97387.92
2019-05-09T05:25:23.770Z,97385.45
2019-05-09T05:27:52.879Z,97370.51
2019-05-09T05:30:21.943Z,97394.45
2019-05-09T05:33:07.987Z,97395.14
2019-05-09T05:35:40.821Z,97396.14
2019-05-09T05:38:09.984Z,97397.98
2019-05-09T05:40:44.882Z,97398.50
2019-05-09T05:43:09.777Z,97401.55
2019-05-09T05:45:49.711Z,97401.70
2019-05-09T05:48:23.010Z,97401.69
2019-05-09T05:50:52.713Z,97406.64
2019-05-09T05:53:21.918Z,97404.50
2019-05-09T05:55:52.888Z,97408.41
2019-05-09T05:58:24.083Z,97414.12
2019-05-09T06:00:53.107Z,97409.34
2019-05-09T06:03:22.600Z,97407.54
2019-05-09T06:05:53.224Z,97393.83
2019-05-09T06:08:22.338Z,97383.46
2019-05-09T06:10:51.326Z,97375.12
2019-05-09T06:13:20.745Z,97369.06
2019-05-09T06:15:49.781Z,97361.25
2019-05-09T06:18:18.910Z,97356.70
2019-05-09T06:20:48.589Z,97350.34
2019-05-09T06:23:17.906Z,97335.94
2019-05-09T06:25:48.469Z,97332.98
2019-05-09T06:28:18.341Z,97334.14
2019-05-09T06:30:47.745Z,97326.75
2019-05-09T06:33:18.138Z,97331.63
2019-05-09T06:35:48.372Z,97331.90
2019-05-09T06:38:18.726Z,97339.72
2019-05-09T06:40:48.048Z,97339.59
2019-05-09T06:43:25.579Z,97342.17
2019-05-09T06:46:14.735Z,97345.80
2019-05-09T06:48:43.790Z,97343.34
2019-05-09T06:51:12.852Z,97347.63
2019-05-09T06:53:41.908Z,97339.30
2019-05-09T06:56:12.267Z,97338.51
2019-05-09T06:58:41.398Z,97333.18
2019-05-09T07:01:23.153Z,97329.12
2019-05-09T07:03:57.402Z,97331.73
2019-05-09T07:06:52.276Z,97327.63
2019-05-09T07:09:31.510Z,97324.92
2019-05-09T07:12:00.672Z,97327.63
2019-05-09T07:14:33.338Z,97330.59
2019-05-09T07:17:02.228Z,97324.76
2019-05-09T07:19:31.906Z,97326.68
2019-05-09T07:22:09.076Z,97314.62
2019-05-09T07:25:05.559Z,97313.92
2019-05-09T07:27:28.729Z,97308.43
2019-05-09T07:29:59.517Z,97304.45
2019-05-09T07:32:30.461Z,97303.27
2019-05-09T07:35:02.337Z,97305.30
2019-05-09T07:37:31.387Z,97299.69
2019-05-09T07:40:00.527Z,97293.08
2019-05-09T07:42:29.970Z,97300.89
2019-05-09T07:44:59.314Z,97294.11
2019-05-09T07:47:29.507Z,97292.34
2019-05-09T07:49:58.810Z,97289.52
2019-05-09T07:52:28.492Z,97280.40
2019-05-09T07:54:58.120Z,97284.87
2019-05-09T07:57:28.577Z,97277.42
2019-05-09T07:59:58.492Z,97274.66
2019-05-09T08:02:28.341Z,97274.56
2019-05-09T08:04:58.175Z,97272.65
2019-05-09T08:07:29.095Z,97269.96
2019-05-09T08:09:58.314Z,97268.08
2019-05-09T08:12:28.373Z,97271.08
2019-05-09T08:15:11.008Z,97268.84
2019-05-09T08:17:28.790Z,97264.72
2019-05-09T08:19:58.451Z,97268.91
2019-05-09T08:22:32.346Z,97262.77
2019-05-09T08:24:59.377Z,97262.27
2019-05-09T08:27:30.364Z,97264.41
2019-05-09T08:29:59.418Z,97255.60
2019-05-09T08:32:28.748Z,97255.78
2019-05-09T08:34:57.862Z,97261.62
2019-05-09T08:37:28.376Z,97251.24
2019-05-09T08:39:58.811Z,97255.36
2019-05-09T08:42:29.348Z,97260.84
2019-05-09T08:44:59.799Z,97254.34
2019-05-09T08:47:28.910Z,97248.28
2019-05-09T08:50:08.088Z,97253.88
2019-05-09T08:52:37.713Z,97251.53
2019-05-09T08:55:08.582Z,97249.81
2019-05-09T08:57:37.679Z,97241.63
2019-05-09T09:00:08.111Z,97244.50
2019-05-09T09:02:37.850Z,97236.20
2019-05-09T09:05:08.618Z,97232.39
2019-05-09T09:07:38.104Z,97233.72
2019-05-09T09:10:08.434Z,97239.98
2019-05-09T09:12:38.489Z,97243.48
2019-05-09T09:15:08.778Z,97238.80
2019-05-09T09:17:38.640Z,97238.44
2019-05-09T09:20:07.984Z,97240.50
2019-05-09T09:22:37.700Z,97243.27
2019-05-09T09:25:07.641Z,97239.50
2019-05-09T09:27:38.109Z,97238.53
2019-05-09T09:30:19.985Z,97237.20
2019-05-09T09:32:38.888Z,97235.48
2019-05-09T09:35:10.872Z,97230.95
2019-05-09T09:37:48.491Z,97235.62
2019-05-09T09:40:10.929Z,97228.34
2019-05-09T09:42:40.084Z,97225.52
2019-05-09T09:45:10.736Z,97204.18
2019-05-09T09:47:40.528Z,97203.16
2019-05-09T09:50:09.725Z,97200.06
2019-05-09T09:52:38.779Z,97199.72
2019-05-09T09:55:08.962Z,97185.41
2019-05-09T09:57:38.184Z,97175.77
2019-05-09T10:00:24.958Z,97172.53
2019-05-09T10:02:54.038Z,97166.86
2019-05-09T10:05:24.268Z,97168.50
2019-05-09T10:07:53.265Z,97163.05
2019-05-09T10:10:35.712Z,97152.61
2019-05-09T10:13:04.912Z,97156.96
2019-05-09T10:16:25.451Z,97156.39
2019-05-09T10:19:08.368Z,97151.38
2019-05-09T10:21:49.700Z,97158.99
2019-05-09T10:24:18.748Z,97153.81
2019-05-09T10:27:08.301Z,97147.66
2019-05-09T10:29:38.793Z,97152.98
2019-05-09T10:32:10.556Z,97148.63
2019-05-09T10:34:42.060Z,97155.14
2019-05-09T10:37:12.277Z,97138.40
2019-05-09T10:39:41.438Z,97142.45
2019-05-09T10:42:18.804Z,97136.61
2019-05-09T10:45:04.085Z,97129.85
2019-05-09T10:47:33.344Z,97136.38
2019-05-09T10:50:02.450Z,97135.16
2019-05-09T10:52:31.502Z,97134.13
2019-05-09T10:55:01.878Z,97136.98
2019-05-09T10:57:32.382Z,97134.38
2019-05-09T11:00:01.847Z,97134.84
2019-05-09T11:02:30.894Z,97134.59
2019-05-09T11:05:00.001Z,97134.25
2019-05-09T11:07:29.191Z,97135.43
2019-05-09T11:09:58.921Z,97122.08
2019-05-09T11:12:27.929Z,97129.33
2019-05-09T11:14:59.492Z,97124.70
2019-05-09T11:17:28.601Z,97113.64
2019-05-09T11:19:58.846Z,97118.33
2019-05-09T11:22:29.160Z,97117.80
2019-05-09T11:24:59.842Z,97123.02
2019-05-09T11:27:29.443Z,97126.15
2019-05-09T11:29:58.462Z,97119.19
2019-05-09T11:32:27.910Z,97125.16
2019-05-09T11:34:57.776Z,97121.88
2019-05-09T11:37:26.823Z,97121.20
2019-05-09T11:39:58.074Z,97123.81
2019-05-09T11:42:28.565Z,97121.89
2019-05-09T11:44:58.830Z,97118.84
2019-05-09T11:47:36.453Z,97118.43
2019-05-09T11:49:59.678Z,97113.44
2019-05-09T11:52:29.088Z,97114.55
2019-05-09T11:54:59.444Z,97114.25
2019-05-09T11:57:31.277Z,97114.62
2019-05-09T11:59:59.370Z,97120.37
2019-05-09T12:02:28.466Z,97120.18
2019-05-09T12:04:57.568Z,97121.40
2019-05-09T12:07:28.779Z,97124.08
2019-05-09T12:09:58.906Z,97129.38
2019-05-09T12:12:28.421Z,97131.06
2019-05-09T12:14:58.106Z,97134.76
2019-05-09T12:17:31.256Z,97128.53
2019-05-09T12:20:09.845Z,97132.98
2019-05-09T12:22:28.871Z,97137.47
2019-05-09T12:24:59.467Z,97140.36
2019-05-09T12:27:28.561Z,97146.11
2019-05-09T12:29:58.286Z,97148.27
2019-05-09T12:32:28.486Z,97159.65
2019-05-09T12:34:57.853Z,97164.61
2019-05-09T12:37:28.144Z,97173.41
2019-05-09T12:39:58.523Z,97184.25
2019-05-09T12:42:29.380Z,97184.38
2019-05-09T12:44:59.026Z,97181.63
2019-05-09T12:47:29.106Z,97191.77
2019-05-09T12:50:02.436Z,97191.16
2019-05-09T12:52:29.134Z,97196.80
2019-05-09T12:54:58.373Z,97198.34
2019-05-09T12:57:28.906Z,97205.31
2019-05-09T12:59:58.705Z,97206.44
2019-05-09T13:02:28.118Z,97215.47
2019-05-09T13:04:57.243Z,97227.37
2019-05-09T13:07:29.440Z,97223.91
2019-05-09T13:09:58.268Z,97218.78
2019-05-09T13:12:29.149Z,97222.14
2019-05-09T13:14:59.535Z,97225.39
2019-05-09T13:17:31.938Z,97241.11
2019-05-09T13:20:01.235Z,97241.50
2019-05-09T13:22:30.342Z,97247.96
2019-05-09T13:25:02.875Z,97250.34
2019-05-09T13:27:32.248Z,97258.66
2019-05-09T13:30:01.373Z,97262.50
2019-05-09T13:32:30.428Z,97268.75
2019-05-09T13:34:59.454Z,97268.42
2019-05-09T13:37:29.567Z,97268.45
2019-05-09T13:39:58.664Z,97282.82
2019-05-09T13:42:28.631Z,97285.09
2019-05-09T13:44:57.978Z,97286.51
2019-05-09T13:47:28.037Z,97298.71
2019-05-09T13:49:59.175Z,97301.66
2019-05-09T13:52:28.049Z,97314.63
2019-05-09T13:54:58.601Z,97321.27
2019-05-09T13:57:27.940Z,97327.85
2019-05-09T13:59:58.519Z,97330.87
2019-05-09T14:02:29.058Z,97330.41
2019-05-09T14:04:59.800Z,97338.14
2019-05-09T14:07:28.801Z,97334.41
2019-05-09T14:09:57.900Z,97338.78
2019-05-09T14:12:28.980Z,97336.20
2019-05-09T14:14:58.197Z,97340.56
2019-05-09T14:17:44.876Z,97345.77
2019-05-09T14:19:58.277Z,97354.16
2019-05-09T14:22:27.384Z,97354.77
2019-05-09T14:24:58.546Z,97367.77
2019-05-09T14:27:28.548Z,97368.30
2019-05-09T14:29:59.349Z,97379.52
2019-05-09T14:32:31.316Z,97392.45
2019-05-09T14:35:01.314Z,97400.38
2019-05-09T14:37:30.319Z,97408.25
2019-05-09T14:40:03.744Z,97424.57
2019-05-09T14:42:30.163Z,97422.63
2019-05-09T14:44:59.203Z,97438.67
2019-05-09T14:47:28.319Z,97439.20
2019-05-09T14:49:59.303Z,97445.89
2019-05-09T14:52:28.415Z,97449.20
2019-05-09T14:54:58.108Z,97450.65
2019-05-09T14:57:28.601Z,97456.11
2019-05-09T14:59:58.421Z,97463.20
2019-05-09T15:02:27.566Z,97465.92
2019-05-09T15:04:58.558Z,97467.48
2019-05-09T15:07:28.416Z,97463.91
2019-05-09T15:09:59.922Z,97475.05
2019-05-09T15:12:28.907Z,97477.63
2019-05-09T15:14:58.118Z,97497.23
2019-05-09T15:17:27.641Z,97509.25
2019-05-09T15:20:00.507Z,97516.84
2019-05-09T15:22:28.518Z,97523.61
2019-05-09T15:24:59.055Z,97527.39
2019-05-09T15:27:28.134Z,97533.69
2019-05-09T15:29:58.473Z,97541.16
2019-05-09T15:32:27.777Z,97534.97
2019-05-09T15:34:57.759Z,97539.28
2019-05-09T15:37:28.544Z,97543.95
2019-05-09T15:39:57.835Z,97555.55
2019-05-09T15:42:26.856Z,97549.09
2019-05-09T15:44:58.779Z,97551.25
2019-05-09T15:47:30.797Z,97542.05
2019-05-09T15:50:15.515Z,97548.21
2019-05-09T15:52:31.699Z,97550.06
2019-05-09T15:55:00.805Z,97554.56
2019-05-09T15:57:29.816Z,97564.39
2019-05-09T15:59:59.014Z,97562.16
2019-05-09T16:02:28.393Z,97565.13
2019-05-09T16:04:58.369Z,97572.05
2019-05-09T16:07:28.508Z,97571.47
2019-05-09T16:09:58.148Z,97578.98
2019-05-09T16:12:27.873Z,97586.73
2019-05-09T16:14:56.949Z,97588.86
2019-05-09T16:17:28.523Z,97592.82
2019-05-09T16:19:57.720Z,97604.08
2019-05-09T16:22:28.392Z,97601.45
2019-05-09T16:24:57.587Z,97603.25
2019-05-09T16:27:26.653Z,97597.79
2019-05-09T16:29:57.792Z,97590.97
2019-05-09T16:32:26.476Z,97596.64
2019-05-09T16:34:55.573Z,97604.05
2019-05-09T16:37:24.663Z,97602.83
2019-05-09T16:39:53.638Z,97609.86
2019-05-09T16:42:23.532Z,97613.45
2019-05-09T16:44:53.152Z,97625.80
2019-05-09T16:47:25.393Z,97627.59
2019-05-09T16:49:54.392Z,97632.81
2019-05-09T16:52:24.941Z,97632.50
2019-05-09T16:55:04.151Z,97640.19
2019-05-09T16:57:33.617Z,97646.08
2019-05-09T17:00:03.383Z,97648.63
2019-05-09T17:02:34.243Z,97643.04
2019-05-09T17:05:03.509Z,97650.02
2019-05-09T17:07:32.640Z,97646.17
2019-05-09T17:10:01.942Z,97652.31
2019-05-09T17:12:31.019Z,97651.29
2019-05-09T17:15:00.159Z,97661.79
2019-05-09T17:17:29.437Z,97655.18
2019-05-09T17:19:58.492Z,97656.23
2019-05-09T17:23:06.895Z,97657.13
2019-05-09T17:25:23.405Z,97665.19
2019-05-09T17:27:55.790Z,97671.91
2019-05-09T17:30:23.674Z,97678.87
2019-05-09T17:32:53.769Z,97683.13
2019-05-09T17:35:22.850Z,97681.20
2019-05-09T17:37:51.961Z,97692.02
2019-05-09T17:40:21.037Z,97691.94
2019-05-09T17:42:50.188Z,97700.27
2019-05-09T17:45:19.264Z,97706.64
2019-05-09T17:47:49.189Z,97704.50
2019-05-09T17:50:18.676Z,97714.28
2019-05-09T17:52:48.169Z,97714.63
2019-05-09T17:55:18.271Z,97715.69
2019-05-09T17:57:48.016Z,97712.89
2019-05-09T18:00:21.634Z,97725.22
2019-05-09T18:02:50.621Z,97734.28
2019-05-09T18:05:20.202Z,97726.27
2019-05-09T18:07:50.115Z,97724.23
2019-05-09T18:10:20.885Z,97728.13
2019-05-09T18:12:51.092Z,97734.28
2019-05-09T18:15:20.164Z,97743.03
2019-05-09T18:17:49.366Z,97752.63
2019-05-09T18:20:18.462Z,97754.14
2019-05-09T18:22:48.075Z,97757.67
2019-05-09T18:25:18.767Z,97762.61
2019-05-09T18:27:48.853Z,97765.80
2019-05-09T18:30:19.412Z,97773.81
2019-05-09T18:33:23.734Z,97767.90
2019-05-09T18:35:52.865Z,97782.84
2019-05-09T18:38:28.048Z,97778.56
2019-05-09T18:40:58.126Z,97791.23
2019-05-09T18:43:27.611Z,97794.82
2019-05-09T18:45:57.842Z,97804.13
2019-05-09T18:48:27.779Z,97810.52
2019-05-09T18:50:57.014Z,97816.59
2019-05-09T18:53:26.127Z,97818.77
2019-05-09T18:55:55.360Z,97833.80
2019-05-09T18:58:26.496Z,97839.13
2019-05-09T19:00:55.680Z,97835.86
2019-05-09T19:03:24.701Z,97844.33
2019-05-09T19:05:53.809Z,97849.47
2019-05-09T19:08:22.870Z,97859.09
2019-05-09T19:10:52.762Z,97860.83
2019-05-09T19:13:22.111Z,97868.61
2019-05-09T19:16:16.075Z,97870.81
2019-05-09T19:19:19.558Z,97872.99
2019-05-09T19:21:52.292Z,97873.80
2019-05-09T19:24:21.871Z,97887.25
2019-05-09T19:26:51.153Z,97889.59
2019-05-09T19:29:22.151Z,97893.41
2019-05-09T19:31:51.234Z,97892.72
2019-05-09T19:34:20.913Z,97905.47
2019-05-09T19:36:49.919Z,97908.67
2019-05-09T19:39:19.067Z,97910.86
2019-05-09T19:41:48.118Z,97912.81
2019-05-09T19:44:17.220Z,97917.50
2019-05-09T19:46:47.003Z,97911.28
2019-05-09T19:49:16.815Z,97922.50
2019-05-09T19:51:45.986Z,97925.95
2019-05-09T19:54:15.018Z,97926.80
2019-05-09T19:56:44.783Z,97931.23
2019-05-09T19:59:13.928Z,97931.28
2019-05-09T20:01:43.101Z,97931.90
2019-05-09T20:04:12.130Z,97937.61
2019-05-09T20:06:41.625Z,97942.76
2019-05-09T20:09:17.941Z,97937.63
2019-05-09T20:12:04.594Z,97940.64
2019-05-09T20:14:39.848Z,97946.49
2019-05-09T20:17:08.946Z,97946.17
2019-05-09T20:19:38.813Z,97946.11
2019-05-09T20:22:08.460Z,97945.97
2019-05-09T20:24:37.982Z,97947.82
2019-05-09T20:27:07.159Z,97960.57
2019-05-09T20:29:36.486Z,97967.43
2019-05-09T20:32:05.824Z,97977.58
2019-05-09T20:34:34.927Z,97974.92
2019-05-09T20:37:04.765Z,97981.53
2019-05-09T20:39:34.032Z,97988.34
2019-05-09T20:42:04.075Z,97993.33
2019-05-09T20:44:33.938Z,97989.37
2019-05-09T20:47:03.304Z,97997.19
2019-05-09T20:49:33.022Z,98008.31
2019-05-09T20:52:02.358Z,98010.67
2019-05-09T20:54:31.761Z,98013.16
2019-05-09T20:57:01.062Z,98018.13
2019-05-09T20:59:30.495Z,98016.80
2019-05-09T21:01:59.895Z,98012.13
2019-05-09T21:04:29.132Z,98017.49
2019-05-09T21:06:58.609Z,98017.66
2019-05-09T21:09:27.980Z,98014.19
2019-05-09T21:11:57.263Z,98013.67
2019-05-09T21:14:26.848Z,98023.47
2019-05-09T21:16:56.358Z,98014.70
2019-05-09T21:19:26.032Z,98023.00
2019-05-09T21:21:55.637Z,98025.81
2019-05-09T21:24:24.965Z,98020.50
2019-05-09T21:26:54.240Z,98025.79
2019-05-09T21:29:23.735Z,98034.91
2019-05-09T21:31:53.061Z,98027.61
2019-05-09T21:34:22.627Z,98036.27
2019-05-09T21:36:52.010Z,98036.75
2019-05-09T21:39:23.198Z,98050.87
2019-05-09T21:41:53.548Z,98052.64
2019-05-09T21:44:24.284Z,98054.12
2019-05-09T21:46:53.565Z,98060.80
2019-05-09T21:49:22.763Z,98065.87
2019-05-09T21:51:51.935Z,98063.05
2019-05-09T21:54:21.224Z,98065.85
2019-05-09T21:56:50.388Z,98067.19
2019-05-09T21:59:19.530Z,98074.16
2019-05-09T22:01:48.633Z,98079.66
2019-05-09T22:04:17.688Z,98086.77
2019-05-09T22:06:46.706Z,98083.77
2019-05-09T22:09:15.851Z,98085.42
2019-05-09T22:11:45.670Z,98089.26
2019-05-09T22:14:14.741Z,98094.42
2019-05-09T22:16:44.127Z,98087.63
2019-05-09T22:19:13.199Z,98089.45
2019-05-09T22:21:42.324Z,98088.67
2019-05-09T22:24:11.492Z,98086.97
2019-05-09T22:26:40.717Z,98088.80
2019-05-09T22:29:09.790Z,98099.10
2019-05-09T22:31:38.846Z,98095.45
2019-05-09T22:34:07.962Z,98095.63
2019-05-09T22:36:37.064Z,98092.81
2019-05-09T22:39:06.814Z,98100.63
2019-05-09T22:41:35.870Z,98101.30
2019-05-09T22:44:04.992Z,98105.27
2019-05-09T22:46:34.175Z,98120.52
2019-05-09T22:49:03.748Z,98116.14
2019-05-09T22:51:33.123Z,98118.44
2019-05-09T22:54:12.141Z,98115.09
2019-05-09T22:56:33.043Z,98116.61
2019-05-09T22:59:02.229Z,98116.73
2019-05-09T23:01:31.298Z,98118.20
2019-05-09T23:04:00.408Z,98120.39
2019-05-09T23:06:29.419Z,98113.94
2019-05-09T23:08:58.518Z,98117.12
2019-05-09T23:11:27.558Z,98120.11
2019-05-09T23:13:56.697Z,98117.64
2019-05-09T23:16:26.956Z,98121.13
2019-05-09T23:18:56.078Z,98120.80
2019-05-09T23:21:27.300Z,98126.41
2019-05-09T23:23:59.508Z,98123.39
2019-05-09T23:26:28.558Z,98129.56
2019-05-09T23:28:57.570Z,98129.59
2019-05-09T23:31:37.426Z,98134.78
2019-05-09T23:34:07.994Z,98132.47
2019-05-09T23:36:37.127Z,98137.28
2019-05-09T23:39:26.831Z,98133.16
2019-05-09T23:41:55.938Z,98134.46
2019-05-09T23:44:26.341Z,98139.14
2019-05-09T23:46:55.393Z,98142.64
2019-05-09T23:49:24.437Z,98142.30
2019-05-09T23:51:53.491Z,98143.94
2019-05-09T23:54:48.070Z,98152.09
2019-05-09T23:57:28.514Z,98147.92
